FAQ´s Contáctenos Seguridad Mapa Web Inicio
Recibiendo cotizaciones de bróker en TIEMPO DIFERIDO
ULTIMA HORA:
Ver Noticia Anterior Detener Noticias Ver Noticia Siguiente
Nasdaq 100
Nombre ▼ Precio Var. % Máximo Mínimo Hora C   V
AC ALIGN TECHNOLOGY 619,750 -0,82 632,570 605,690 21:30  
AC AMER.ELEC.POWER 82,34 1,26 82,56 81,04 21:30  
AC ANALOG DEVICES IN 180,79 0,08 183,95 178,71 21:30  
AC ASML HOLDING 771,52 -2,26 790,74 759,84 21:30  
AC CDW CORP/DE 191,670 -1 194,930 190,120 21:30  
AC CHARTER COMMUNICA 679,300 1,32 681,090 669,530 21:30  
AC CISCO SYSTEMS INC 56,230 0,14 56,820 55,670 21:30  
AC CSX CORP 35,84 0,75 36,48 35,48 21:30  
AC DEXCOM INC 519,490 -7,13 547,010 514,940 21:30  
AC DOCUSIGN 135,090 -42,22 155,400 131,520 21:30  
AC FOX CORP-CLASS B 33,540 1,91 33,580 32,920 21:30  
AC JD.COM INC 77,95 -7,7 80,43 73,69 21:30  
AC KRAFT HEINZ 33,640 1,17 33,790 33,305 21:30  
AC MATCH GROUP INC 126,190 -1,62 128,960 120,910 21:30  
AC MICROSOFT CORP. 323,01 -1,96 332,70 318,03 21:30  
AC MODERNA INC 306,720 1,73 318,500 293,890 21:30  
AC NETEASE INC 100,05 -6,9 104,04 98,79 21:30  
AC OKTA INC 214,590 -2,97 225,000 210,230 21:30  
AC PELOTON INTERACTI 43,550 -2,02 46,500 42,290 21:30  
AC PEPSICO INC. 164,71 2,54 164,88 161,37 21:30  
AC PINDUODUO INC-ADR 54,440 -8,16 57,000 51,920 21:30  
AC T-MOBILE US INC 112,770 2,18 112,980 109,040 21:30  
AC TEXAS INSTRUMENTS 193,38 -0,1 195,97 191,74 21:30  
AC TRIP.COM GROUP LT 25,260 -12,2 28,180 24,935 21:30  
AC WALGREENS BOOTS A 46,53 4,28 46,58 44,53 21:30  
AC WORKDAY INC 266,99 0,12 269,00 259,89 21:30  
AC XCEL ENERGY INC. 65,17 0,8 65,58 64,16 21:30  
ACTIVISION BLIZZ RG 57,36 0,12 57,43 56,40 21:30  
ADOBE RG 616,53 -8,23 660,47 604,41 21:30  
ADVANCED MICRO D RG 144,01 -4,42 152,38 140,72 21:30  
ALPHAB RG-C-NV 2.850,41 -0,87 2.904,00 2.823,00 21:30  
ALPHABET-A RG 2.840,03 -0,67 2.887,80 2.806,02 21:30  
AMAZON.COM RG 3.389,79 -1,38 3.466,84 3.338,92 21:30  
AMGEN RG 202,44 0,63 203,69 200,88 21:30  
ANSYS RG 385,38 -2,45 395,71 379,66 21:30  
APPLE RG 161,84 -1,17 164,96 159,72 21:30  
APPLIED MATERIAL RG 145,83 -0,45 150,74 143,33 21:30  
ATLASSIAN RG-A 349,50 -5,26 368,95 340,00 21:30  
AUTODESK INC RG 259,02 0,52 263,49 253,10 21:30  
AUTOMATIC DATA P RG 229,89 -1,09 232,98 227,86 21:30  
BAIDU SP ADR-A 137,39 -7,76 143,56 132,20 21:30  
BIOGEN RG 223,92 -2,01 228,90 221,78 21:30  
BOOKING HOLDINGS INC 2.114,44 -2,64 2.185,01 2.087,81 21:30  
BROADCOM INC 558,12 1,02 569,00 550,40 21:30  
CADENCE DESIGN RG 177,87 -3,67 184,92 175,36 21:30  
CERNER CORP RG 71,67 -0,27 72,49 71,36 21:30  
CHECK POINT SFTW RG 109,26 -1,67 111,41 107,87 21:30  
CINTAS RG 427,27 -1,13 440,55 420,48 21:30  
COGNIZANT TECH SO-A 78,52 -1,14 80,00 77,78 21:30  
COMCAST-A 51,78 0,54 52,25 51,41 21:30  
COPART RG 145,62 -0,94 148,25 142,29 21:30  
COSTCO WHSL RG 528,93 0,65 537,24 524,77 21:30  
DOLLAR TREE RG 137,04 1,63 137,25 134,19 21:30  
EBAY RG 67,05 -0,63 68,54 66,40 21:30  
ELECTRONIC ARTS RG 125,27 2,18 125,58 123,09 21:30  
EXELON RG 52,73 -0,28 53,44 51,74 21:30  
FASTENAL RG 60,13 0,78 60,41 59,42 21:30  
FISERV INC RG 100,50 0,64 101,38 98,87 21:30  
FOX CORP - CLASS A 36,04 2 36,16 35,42 21:30  
GILEAD SCIENCES RG 69,56 -0,15 70,43 69,32 21:30  
IDEXX LABS RG 586,54 -2,08 605,49 575,81 21:30  
ILLUMINA RG 347,28 -2,85 361,71 341,03 21:30  
INCYTE RG 65,78 -1,27 66,79 65,23 21:30  
INTEL RG 49,25 -0,5 50,06 48,76 21:30  
INTUIT RG 647,96 -3,59 673,45 635,00 21:30  
INTUITIVE SURGIC RG 321,63 -1,73 329,99 313,90 21:30  
KEURIG DR PEPPER INC 34,46 0,9 34,49 34,01 21:30  
KLA RG 400,68 -0,45 410,54 394,81 21:30  
LAM RESEARCH COR RG 661,47 - 0 670,97 652,81 21:30  
LULULEMON ATHL RG 435,72 -3,31 454,09 430,67 21:30  
MARRIOTT INTL RG-A 149,98 -0,75 152,09 146,91 21:30  
MARVELL TECHNOLOGY INC 83,59 17,68 88,47 80,50 21:30  
MAXIM INTEGRATED PRODUCTS INC 14,2500 - 0 16,2100 14,0300 22:00  
MERCADOLIBRE RG 1.052,95 -6,75 1.130,00 1.041,12 21:30  
META PLATFORMS RG-A 306,84 -1,14 313,75 299,51 21:30  
MICROCHIP TECH RG 85,27 1,22 87,15 84,23 21:30  
MICRON TECHNOLOG RG 81,62 -1,52 84,40 80,64 21:30  
MONDELEZ INTL RG-A 60,26 1,34 60,57 59,69 21:30  
MONSTER BEVERAGE RG 83,70 0,89 83,82 82,62 21:30  
NETFLIX RG 602,13 -2,32 625,00 594,23 21:30  
NVIDIA RG 306,93 -4,46 321,29 301,30 21:30  
NXP SEMICONDUCTO BR 227,12 1,97 227,76 221,56 21:30  
O REILLY AUTO RG 659,18 0,27 668,49 655,73 21:30  
PACCAR RG 85,67 2,03 86,39 84,90 21:30  
PAYCHEX INC RG 119,80 -0,7 121,29 118,71 21:30  
PAYPAL HOLDINGS RG 183,93 -1,72 187,65 179,29 21:30  
QUALCOMM RG 176,51 -0,29 180,25 173,75 21:30  
REGENERON PHARMA RG 635,16 0,18 641,79 623,50 21:30  
ROSS STORES RG 110,19 -0,33 111,16 108,78 21:30  
SEAGEN INC 150,74 -4,99 159,34 148,18 21:30  
SIRIUS XM HLDGS RG 6,21 -0,64 6,34 6,19 21:30  
SKYWORKS SOLUTIO RG 149,41 -0,19 152,64 147,74 21:30  
SPLUNK RG 114,21 -2,31 116,70 108,18 21:30  
STARBUCKS RG 111,24 -0,16 112,81 110,08 21:30  
SYNOPSYS RG 344,56 -1,46 351,98 339,17 21:30  
TESLA RG 1.014,97 -6,41 1.090,37 1.000,21 21:30  
VERISIGN RG 238,61 -0,88 241,41 236,50 21:30  
VERISK ANALYTICS RG 221,65 -1,86 227,49 219,22 21:30  
VERTEX PHARMACEU RG 203,81 -0,31 206,43 202,00 21:30  
La cotización de los valores del índice se muestra en Dólares

Mejores hoy

Nasdaq 100
MRVL 83,59 17,68% 21:30:00
AC... 46,53 4,28% 21:30:00
AC... 164,71 2,54% 21:30:00
EA 125,27 2,18% 21:30:00
AC... 112,770 2,18% 21:30:00

Peores hoy

Nasdaq 100
AC... 135,090 -42,22% 21:30:00
AC... 25,260 -12,2% 21:30:00
ADBE 616,53 -8,23% 21:30:00
AC... 54,440 -8,16% 21:30:00
BIDU 137,39 -7,76% 21:30:00

Claves

  • Hoy
Icono de conformidad con el Nivel Doble-A, de las Directrices de Accesibilidad para el Contenido Web 1.0 del W3C-WAI
Cotizaciones de CAC 40 proporcionadas por Euronext. Cotizaciones de FTSE 100 proporcionadas por FTSE. Cotizaciones de Ámsterdam Exchange proporcionadas por Euronext. Cotizaciones de Swiss Market Index proporcionadas por Swiss Stock Exchange. Cotizaciones de Oporto Por Stock I proporcionadas por Euronext. Cotizaciones de Milano Borsa proporcionadas por Milano Italia Borsa. Cotizaciones de FTSEurofirst proporcionadas por FTSE. Cotizaciones de Spot Market Germany (Frankfurt/Xetra®) Level 1 Delayed y Deutsche Börse Indices and Xetra® ETF Delayed proporcionadas por Deutsche Börse. Cotizaciones de S&P 500 proporcionadas por S&P Composite. Cotizaciones de Dow Jones proporcionadas por Dow Jones. Cotizaciones de NASDAQ 100/Composite proporcionadas por NASDAQ. Cotizaciones de NIKKEI 225 proporcionadas por NIKKEI 225 Stock A. Noticias de Última hora y Claves económicas proporcionadas por Europa Press. Se habla de... y A Fondo proporcionados por AFINet. Queda terminantemente prohibida la diseminación de esta información.
Los datos de carácter bursátil distribuidos a través de esta Web se publican con carácter meramente informativo. Unicaja Banco S.A. no es responsable de los errores o inexactitudes que pudiera contener esta información, no resultando, en ningún caso, responsable de las consecuencias que del acceso o de su visualización pudieran derivarse. Unicaja Banco S.A. no modifica, transforma o manipula los contenidos de los datos de carácter bursátil proporcionados por los mercados.
Los presentes informes no constituyen recomendación personalizada a efectos de la Ley 24/1988 del Mercado de Valores y su normativa de desarrollo al no presentarse como convenientes para el cliente, ni basarse en una consideración de sus circunstancias personales. Así mismo, constituyen informes de inversiones a efectos de la Ley 24/1988 del Mercado de Valores y su normativa de desarrollo, pues su objetivo es dar al público una explicación objetiva e independiente del objeto del propio informe. Las conclusiones obtenidas en base a resultados anteriores a los informes, o la referente a resultados futuros, no constituyen un indicador fiable de resultados futuros. El rendimiento obtenido por productos denominados en divisas extranjeras podrá verse afectado en función de las fluctuaciones monetarias. El tratamiento fiscal depende de las circunstancias individuales de cada cliente, y puede variar en el futuro. Los cálculos efectuados para hallar las rentabilidades de los productos que figuran en estos informes, han sido realizados de acuerdo con lo establecido en la normativa aplicable y corresponden al periodo al que se hace referencia. Dichas rentabilidades no son promesa ni garantía de rentabilidades futuras.